Time;durP1;ratioP1;P1;durP2;ratioP2;P2;SDS_P1;SDS_P2;PMS_P1;PMS_P2;Temp;Humidity;BMP_temperature;BMP_pressure;BME280_temperature;BME280_humidity;BME280_pressure;Samples;Min_cycle;Max_cycle;Signal;HPM_P1;HPM_P2
2022/07/18 00:02:17;;;;;;;4.33;2.60;;;14.60;99.90;;;;;;5132905;28;20256;-74
2022/07/18 00:04:45;;;;;;;5.37;2.40;;;14.60;99.90;;;;;;5132911;28;20684;-75
2022/07/18 00:07:14;;;;;;;2.77;2.20;;;14.60;99.90;;;;;;5133282;28;20218;-76
2022/07/18 00:09:43;;;;;;;5.47;2.67;;;14.60;99.90;;;;;;5133117;28;20236;-75
2022/07/18 00:12:13;;;;;;;3.47;2.80;;;14.60;99.90;;;;;;5133071;28;20280;-76
2022/07/18 00:14:41;;;;;;;2.80;2.40;;;14.60;99.90;;;;;;5114251;28;20660;-75
2022/07/18 00:17:11;;;;;;;5.13;2.77;;;14.60;99.90;;;;;;5112058;28;20233;-74
2022/07/18 00:19:40;;;;;;;3.10;2.50;;;14.50;99.90;;;;;;5111719;28;20250;-73
2022/07/18 00:22:08;;;;;;;4.07;2.57;;;14.40;99.90;;;;;;5111935;28;20253;-77
2022/07/18 00:24:37;;;;;;;2.87;2.50;;;14.50;99.90;;;;;;5112498;28;20579;-76
2022/07/18 00:27:08;;;;;;;3.00;2.70;;;14.50;99.90;;;;;;5116455;28;20221;-79
2022/07/18 00:29:38;;;;;;;3.10;2.80;;;14.40;99.90;;;;;;5116994;28;20198;-79
2022/07/18 00:32:09;;;;;;;4.07;2.57;;;14.40;99.90;;;;;;5117318;27;20203;-78
2022/07/18 00:34:37;;;;;;;2.80;2.60;;;14.30;99.90;;;;;;5136669;27;20645;-74
2022/07/18 00:37:05;;;;;;;3.03;2.73;;;14.30;99.90;;;;;;5136378;27;20241;-75
2022/07/18 00:39:33;;;;;;;3.30;3.00;;;14.30;99.90;;;;;;5135698;27;20645;-74
2022/07/18 00:42:02;;;;;;;3.47;2.90;;;14.30;99.90;;;;;;5136107;27;20329;-74
2022/07/18 00:44:30;;;;;;;4.03;3.10;;;14.30;99.90;;;;;;5136498;27;20229;-75
2022/07/18 00:47:01;;;;;;;3.60;3.00;;;14.30;99.90;;;;;;5136209;27;20296;-75
2022/07/18 00:49:33;;;;;;;6.70;3.00;;;14.20;99.90;;;;;;5135817;27;20233;-75
2022/07/18 00:52:01;;;;;;;4.40;3.07;;;14.20;99.90;;;;;;5136284;27;20273;-76
2022/07/18 00:54:31;;;;;;;3.90;3.17;;;14.10;99.90;;;;;;5136220;27;20240;-75
2022/07/18 00:57:00;;;;;;;3.20;2.70;;;14.00;99.90;;;;;;5136106;27;20572;-73
2022/07/18 01:02:12;;;;;;;3.57;3.00;;;13.90;99.90;;;;;;5134864;27;20320;-75
2022/07/18 01:04:40;;;;;;;3.63;3.20;;;13.80;99.90;;;;;;5136016;27;20194;-76
2022/07/18 01:07:10;;;;;;;2.87;2.60;;;13.80;99.90;;;;;;5136474;27;20205;-75
2022/07/18 01:09:40;;;;;;;4.40;3.30;;;13.70;99.90;;;;;;5136118;27;20189;-75
2022/07/18 01:12:09;;;;;;;3.43;2.70;;;13.70;99.90;;;;;;5121681;27;20264;-74
2022/07/18 01:14:38;;;;;;;4.03;3.10;;;13.60;99.90;;;;;;5133813;27;20293;-74
2022/07/18 01:17:15;;;;;;;4.83;3.20;;;13.60;99.90;;;;;;5135484;27;20664;-74
2022/07/18 01:19:45;;;;;;;5.33;3.30;;;13.60;99.90;;;;;;5135610;27;20567;-74
2022/07/18 01:22:17;;;;;;;4.40;3.20;;;13.60;99.90;;;;;;5135843;27;20636;-75
2022/07/18 01:24:46;;;;;;;4.90;3.07;;;13.60;99.90;;;;;;5135952;27;20231;-74
2022/07/18 01:27:17;;;;;;;3.80;2.97;;;13.60;99.90;;;;;;5135479;27;20190;-74
2022/07/18 01:29:47;;;;;;;4.00;3.20;;;13.50;99.90;;;;;;5135632;27;20296;-75
2022/07/18 01:32:17;;;;;;;4.37;3.50;;;13.50;99.90;;;;;;5135741;27;20628;-75
2022/07/18 01:34:47;;;;;;;3.50;3.20;;;13.40;99.90;;;;;;5135675;27;20236;-74
2022/07/18 01:37:17;;;;;;;5.63;3.30;;;13.40;99.90;;;;;;5135389;27;20217;-76
2022/07/18 01:39:46;;;;;;;4.53;3.33;;;13.40;99.90;;;;;;5135516;27;20629;-75
2022/07/18 01:42:17;;;;;;;5.47;3.27;;;13.30;99.90;;;;;;5135248;27;20239;-75
2022/07/18 01:44:48;;;;;;;5.80;3.30;;;13.30;99.90;;;;;;5135479;27;20192;-74
2022/07/18 01:47:17;;;;;;;4.13;3.20;;;13.30;99.90;;;;;;5135647;27;20193;-75
2022/07/18 01:49:47;;;;;;;4.70;3.33;;;13.30;99.90;;;;;;5134775;27;20221;-75
2022/07/18 01:52:16;;;;;;;3.87;3.40;;;13.30;99.90;;;;;;5135383;27;20236;-74
2022/07/18 01:54:47;;;;;;;5.07;3.10;;;13.20;99.90;;;;;;5135165;27;20300;-74
2022/07/18 01:57:15;;;;;;;4.63;3.23;;;13.20;99.90;;;;;;5135180;27;20217;-74
2022/07/18 01:59:44;;;;;;;4.40;3.27;;;13.10;99.90;;;;;;5133727;27;20719;-75
2022/07/18 02:02:12;;;;;;;3.40;3.10;;;13.10;99.90;;;;;;5134843;27;20232;-74
2022/07/18 02:07:28;;;;;;;4.13;3.10;;;13.10;99.90;;;;;;5115415;27;20255;-77
2022/07/18 02:10:00;;;;;;;3.63;3.00;;;13.20;99.90;;;;;;5116542;27;20194;-74
2022/07/18 02:12:28;;;;;;;3.87;3.10;;;13.20;99.90;;;;;;5134821;27;20619;-74
2022/07/18 02:14:57;;;;;;;3.70;3.27;;;13.10;99.90;;;;;;5134764;27;20288;-73
2022/07/18 02:17:25;;;;;;;4.20;3.50;;;13.10;99.90;;;;;;5133955;27;20261;-74
2022/07/18 02:19:53;;;;;;;6.97;3.40;;;13.10;99.90;;;;;;5113961;28;20209;-74
2022/07/18 02:22:27;;;;;;;4.83;3.60;;;13.00;99.90;;;;;;5114122;28;20233;-74
2022/07/18 02:24:56;;;;;;;5.73;3.50;;;13.00;99.90;;;;;;5114538;28;20208;-74
2022/07/18 02:27:24;;;;;;;4.77;3.20;;;13.00;99.90;;;;;;5115727;28;20304;-75
2022/07/18 02:29:53;;;;;;;4.43;3.40;;;13.00;99.90;;;;;;5114769;28;20625;-76
2022/07/18 02:32:22;;;;;;;6.03;3.67;;;12.90;99.90;;;;;;5114196;28;20221;-75
2022/07/18 02:34:51;;;;;;;4.83;3.40;;;12.90;99.90;;;;;;5114393;28;20263;-75
2022/07/18 02:37:21;;;;;;;4.53;3.70;;;12.90;99.90;;;;;;5113987;28;20278;-74
2022/07/18 02:39:51;;;;;;;3.73;3.40;;;12.90;99.90;;;;;;5113545;28;20233;-75
2022/07/18 02:42:19;;;;;;;5.50;3.23;;;12.90;99.90;;;;;;5113637;28;20309;-74
2022/07/18 02:44:47;;;;;;;4.33;3.53;;;12.80;99.90;;;;;;5113634;28;20210;-74
2022/07/18 02:47:17;;;;;;;4.43;3.30;;;12.80;99.90;;;;;;5112902;28;20297;-74
2022/07/18 02:49:48;;;;;;;5.33;3.90;;;12.80;99.90;;;;;;5113395;28;20627;-74
2022/07/18 02:52:17;;;;;;;4.17;3.77;;;12.80;99.90;;;;;;5113306;28;20251;-76
2022/07/18 02:54:45;;;;;;;5.07;3.70;;;12.80;99.90;;;;;;5113700;28;20228;-76
2022/07/18 02:57:16;;;;;;;4.07;3.57;;;12.80;99.90;;;;;;5113714;28;20238;-76
2022/07/18 02:59:45;;;;;;;5.30;3.67;;;12.70;99.90;;;;;;5113157;28;20285;-75
2022/07/18 03:02:13;;;;;;;5.47;4.23;;;12.70;99.90;;;;;;5113424;28;20240;-76
2022/07/18 03:04:42;;;;;;;4.77;3.87;;;12.70;99.90;;;;;;5113401;28;20245;-74
2022/07/18 03:07:10;;;;;;;5.50;4.00;;;12.70;99.90;;;;;;5113212;27;20232;-75
2022/07/18 03:09:40;;;;;;;4.53;3.93;;;12.70;99.90;;;;;;5124386;27;20209;-73
2022/07/18 03:12:08;;;;;;;4.30;3.90;;;12.70;99.90;;;;;;5133297;27;20225;-75
2022/07/18 03:14:38;;;;;;;4.87;4.10;;;12.60;99.90;;;;;;5133211;27;20663;-75
2022/07/18 03:17:08;;;;;;;5.03;3.97;;;12.60;99.90;;;;;;5133139;27;20201;-74
2022/07/18 03:19:37;;;;;;;6.77;3.73;;;12.50;99.90;;;;;;5132959;27;20244;-75
2022/07/18 03:22:05;;;;;;;4.50;4.10;;;12.50;99.90;;;;;;5133481;27;20282;-74
2022/07/18 03:24:33;;;;;;;4.70;4.23;;;12.40;99.90;;;;;;5133156;27;20690;-75
2022/07/18 03:27:02;;;;;;;4.97;4.10;;;12.40;99.90;;;;;;5133349;27;20260;-75
2022/07/18 03:29:30;;;;;;;4.90;3.90;;;12.30;99.90;;;;;;5133412;27;20194;-76
2022/07/18 03:32:00;;;;;;;4.63;3.97;;;12.30;99.90;;;;;;5133546;27;20599;-74
2022/07/18 03:34:33;;;;;;;4.40;3.97;;;12.30;99.90;;;;;;5133436;27;20400;-75
2022/07/18 03:37:01;;;;;;;5.53;4.00;;;12.20;99.90;;;;;;5131441;27;20213;-77
2022/07/18 03:39:30;;;;;;;4.13;3.73;;;12.20;99.90;;;;;;5133050;27;20281;-75
2022/07/18 03:41:58;;;;;;;5.47;4.00;;;12.20;99.90;;;;;;5132890;27;20210;-75
2022/07/18 03:44:32;;;;;;;4.10;3.70;;;12.20;99.90;;;;;;5132330;27;20562;-74
2022/07/18 03:47:01;;;;;;;3.87;3.57;;;12.20;99.90;;;;;;5132252;27;20197;-75
2022/07/18 03:49:33;;;;;;;3.90;3.50;;;12.10;99.90;;;;;;5133046;28;20216;-74
2022/07/18 03:52:02;;;;;;;4.00;3.60;;;12.10;99.90;;;;;;5132986;28;20707;-74
2022/07/18 03:54:30;;;;;;;4.17;3.77;;;12.20;99.90;;;;;;5132996;28;20280;-74
2022/07/18 03:56:58;;;;;;;4.93;3.70;;;12.10;99.90;;;;;;5134168;28;20205;-74
2022/07/18 03:59:28;;;;;;;4.40;3.97;;;12.10;99.90;;;;;;5135539;27;20189;-74
2022/07/18 04:01:56;;;;;;;6.23;4.00;;;12.10;99.90;;;;;;5134674;27;20650;-76
2022/07/18 04:04:26;;;;;;;5.20;3.97;;;12.10;99.90;;;;;;5124036;27;20835;-80
2022/07/18 04:06:58;;;;;;;5.60;4.10;;;12.10;99.90;;;;;;5136122;27;20252;-80
2022/07/18 04:09:27;;;;;;;5.53;3.97;;;12.10;99.90;;;;;;5133168;27;20208;-75
2022/07/18 04:11:55;;;;;;;4.97;4.37;;;12.10;99.90;;;;;;5136737;27;20292;-80
2022/07/18 04:14:23;;;;;;;6.07;3.90;;;12.20;99.90;;;;;;5136691;27;20202;-80
2022/07/18 04:16:54;;;;;;;4.70;3.90;;;12.20;99.90;;;;;;5136750;27;20292;-81
2022/07/18 04:19:23;;;;;;;5.00;3.73;;;12.20;99.90;;;;;;5136686;27;20644;-78
2022/07/18 04:21:52;;;;;;;4.57;3.70;;;12.30;99.90;;;;;;5126385;27;20304;-75
2022/07/18 04:24:23;;;;;;;5.20;4.17;;;12.30;99.90;;;;;;5118518;27;20217;-78
2022/07/18 04:26:51;;;;;;;6.47;4.10;;;12.40;99.90;;;;;;5120745;27;20205;-78
2022/07/18 04:29:19;;;;;;;6.40;4.10;;;12.50;99.90;;;;;;5136144;27;20675;-78
2022/07/18 04:31:47;;;;;;;5.93;3.80;;;12.60;99.90;;;;;;5136536;27;20300;-74
2022/07/18 04:34:15;;;;;;;5.60;3.77;;;12.70;99.90;;;;;;5136827;27;20198;-78
2022/07/18 04:36:44;;;;;;;4.60;3.80;;;12.90;99.90;;;;;;5136477;27;20694;-75
2022/07/18 04:39:13;;;;;;;4.90;3.90;;;12.90;99.90;;;;;;5129606;27;20229;-76
2022/07/18 04:41:44;;;;;;;4.93;3.70;;;13.00;99.90;;;;;;5115601;28;20240;-76
2022/07/18 04:44:12;;;;;;;6.40;3.93;;;13.10;99.90;;;;;;5115493;28;20561;-77
2022/07/18 04:46:40;;;;;;;8.43;4.10;;;13.10;99.90;;;;;;5115205;28;20245;-78
2022/07/18 04:49:08;;;;;;;5.70;4.00;;;13.20;99.90;;;;;;5115277;28;20206;-77
2022/07/18 04:51:36;;;;;;;7.13;4.27;;;13.30;99.90;;;;;;5114701;28;20220;-80
2022/07/18 04:54:05;;;;;;;5.03;4.17;;;13.30;99.90;;;;;;5115260;28;20206;-80
2022/07/18 04:56:35;;;;;;;6.07;4.37;;;13.40;99.90;;;;;;5119175;27;20209;-77
2022/07/18 04:59:04;;;;;;;8.97;3.93;;;13.50;99.90;;;;;;5135781;27;20619;-77
2022/07/18 05:01:32;;;;;;;6.77;4.00;;;13.50;99.90;;;;;;5135922;27;20631;-78
2022/07/18 05:04:02;;;;;;;6.03;4.13;;;13.60;99.90;;;;;;5135830;27;20225;-76
2022/07/18 05:06:32;;;;;;;5.50;3.87;;;13.70;99.90;;;;;;5135946;27;20228;-80
2022/07/18 05:09:02;;;;;;;4.03;3.53;;;13.80;99.90;;;;;;5135234;27;20225;-79
2022/07/18 05:11:30;;;;;;;4.33;3.80;;;13.80;99.90;;;;;;5134864;27;20284;-78
2022/07/18 05:13:59;;;;;;;5.87;3.87;;;13.90;99.90;;;;;;5135849;27;20615;-77
2022/07/18 05:16:28;;;;;;;5.13;3.57;;;14.00;99.90;;;;;;5136136;27;20213;-74
2022/07/18 05:18:59;;;;;;;4.53;3.67;;;14.10;99.90;;;;;;5135437;27;20296;-74
2022/07/18 05:21:34;;;;;;;5.27;3.00;;;14.10;99.90;;;;;;5136260;27;20262;-76
2022/07/18 05:24:03;;;;;;;6.27;3.40;;;14.40;99.90;;;;;;5135388;27;20259;-76
2022/07/18 05:26:31;;;;;;;5.10;3.40;;;14.80;99.90;;;;;;5135209;27;20671;-78
2022/07/18 05:29:04;;;;;;;3.60;3.30;;;15.00;99.90;;;;;;5132626;27;20780;-75
2022/07/18 05:31:33;;;;;;;5.93;3.50;;;14.90;99.90;;;;;;5122122;27;20243;-77
2022/07/18 05:34:01;;;;;;;4.67;3.70;;;15.00;99.90;;;;;;5133355;27;20671;-75
2022/07/18 05:36:29;;;;;;;6.20;3.43;;;15.00;99.90;;;;;;5131030;27;20289;-74
2022/07/18 05:38:58;;;;;;;5.17;3.10;;;15.20;99.90;;;;;;5134684;27;20709;-74
2022/07/18 05:41:26;;;;;;;6.93;3.20;;;15.30;99.90;;;;;;5135858;27;20228;-75
2022/07/18 05:43:54;;;;;;;4.60;3.10;;;15.40;99.90;;;;;;5135644;27;20235;-74
2022/07/18 05:46:24;;;;;;;6.70;3.37;;;15.60;99.90;;;;;;5135038;27;20198;-74
2022/07/18 05:48:52;;;;;;;4.53;3.10;;;15.70;99.90;;;;;;5135076;27;20238;-74
2022/07/18 05:51:21;;;;;;;4.57;2.97;;;15.90;99.90;;;;;;5135017;27;20289;-75
2022/07/18 05:53:52;;;;;;;4.03;3.13;;;16.10;99.90;;;;;;5133908;27;20292;-74
2022/07/18 05:56:20;;;;;;;5.77;3.47;;;16.50;99.90;;;;;;5134039;27;20383;-75
2022/07/18 05:58:48;;;;;;;5.77;3.10;;;16.90;99.90;;;;;;5134614;27;20213;-75
2022/07/18 06:01:19;;;;;;;4.20;2.80;;;17.70;99.90;;;;;;5132229;27;20293;-74
2022/07/18 06:03:49;;;;;;;5.10;2.83;;;18.70;99.90;;;;;;5128311;27;20206;-75
2022/07/18 06:06:18;;;;;;;4.57;2.90;;;20.20;99.90;;;;;;5133277;27;20225;-75
2022/07/18 06:08:47;;;;;;;4.03;2.80;;;21.70;99.90;;;;;;5129733;27;20284;-77
2022/07/18 06:11:18;;;;;;;3.57;2.33;;;22.70;99.90;;;;;;5133005;27;20209;-77
2022/07/18 06:13:46;;;;;;;5.87;2.77;;;23.50;99.80;;;;;;5134182;27;20228;-77
2022/07/18 06:16:14;;;;;;;5.27;2.70;;;24.30;98.00;;;;;;5134200;27;20200;-76
2022/07/18 06:18:43;;;;;;;4.53;2.40;;;25.10;96.20;;;;;;5126757;27;20478;-78
2022/07/18 06:21:13;;;;;;;2.90;2.60;;;25.70;94.70;;;;;;5130149;27;20258;-78
2022/07/18 06:23:41;;;;;;;3.20;2.50;;;26.80;92.30;;;;;;5132824;27;20666;-78
2022/07/18 06:26:10;;;;;;;4.43;2.40;;;27.00;91.10;;;;;;5118274;27;20264;-77
2022/07/18 06:28:38;;;;;;;4.32;2.60;;;27.60;87.50;;;;;;5112874;28;20578;-76
2022/07/18 06:31:15;;;;;;;5.38;2.50;;;27.40;86.40;;;;;;5119581;27;20566;-76
2022/07/18 06:33:44;;;;;;;4.05;2.60;;;27.80;83.90;;;;;;5131027;27;20211;-78
2022/07/18 06:36:17;;;;;;;3.85;2.50;;;27.60;83.00;;;;;;5132892;27;20247;-77
2022/07/18 06:38:45;;;;;;;2.95;2.33;;;27.00;83.80;;;;;;5133038;27;20655;-76
2022/07/18 06:41:13;;;;;;;2.47;2.15;;;27.00;81.20;;;;;;5132996;27;20201;-76
2022/07/18 06:43:42;;;;;;;4.53;2.30;;;28.10;82.20;;;;;;5128649;27;20300;-79
2022/07/18 06:46:10;;;;;;;3.80;2.55;;;28.70;80.90;;;;;;5133076;27;20227;-76
2022/07/18 06:48:39;;;;;;;2.97;2.10;;;29.50;76.20;;;;;;5132926;27;20677;-79
2022/07/18 06:51:08;;;;;;;3.00;2.47;;;29.60;74.40;;;;;;5133069;27;20207;-78
2022/07/18 06:53:38;;;;;;;4.55;2.20;;;30.20;72.90;;;;;;5133032;27;20240;-77
2022/07/18 06:56:07;;;;;;;2.42;2.22;;;30.70;72.10;;;;;;5133409;27;20284;-77
2022/07/18 06:58:35;;;;;;;3.90;2.05;;;31.00;68.50;;;;;;5132621;27;20617;-76
2022/07/18 07:01:03;;;;;;;4.15;2.55;;;31.00;68.60;;;;;;5121809;27;20210;-77
2022/07/18 07:03:32;;;;;;;4.13;2.40;;;31.50;66.90;;;;;;5119335;27;20737;-74
2022/07/18 07:06:00;;;;;;;3.83;2.28;;;31.80;64.40;;;;;;5132598;27;20225;-74
2022/07/18 07:08:28;;;;;;;3.25;2.20;;;31.20;65.20;;;;;;5129924;27;20858;-74
2022/07/18 07:10:58;;;;;;;2.90;2.22;;;31.50;64.70;;;;;;5119821;27;20240;-76
2022/07/18 07:13:26;;;;;;;3.38;2.10;;;31.80;63.70;;;;;;5111715;28;20728;-85
2022/07/18 07:15:54;;;;;;;3.95;2.67;;;32.00;61.30;;;;;;5119225;28;20637;-84
2022/07/18 07:18:23;;;;;;;2.40;2.03;;;32.20;62.10;;;;;;5115107;28;20621;-81
2022/07/18 07:20:54;;;;;;;4.32;2.20;;;33.30;61.90;;;;;;5122738;28;20202;-84
2022/07/18 07:23:23;;;;;;;4.18;2.25;;;32.90;59.70;;;;;;5126249;28;20250;-84
2022/07/18 07:25:51;;;;;;;2.97;2.20;;;34.20;58.10;;;;;;5119925;28;20267;-84
2022/07/18 07:28:21;;;;;;;3.17;2.03;;;34.80;57.40;;;;;;5130356;27;20229;-86
2022/07/18 07:30:49;;;;;;;2.85;2.10;;;35.20;57.00;;;;;;5115573;28;20203;-88
2022/07/18 07:33:18;;;;;;;3.50;2.30;;;35.30;54.80;;;;;;5137184;27;20225;-89
2022/07/18 07:35:46;;;;;;;5.22;1.98;;;34.80;54.80;;;;;;5132860;27;20234;-87
2022/07/18 07:38:18;;;;;;;2.85;2.25;;;34.90;56.40;;;;;;5133724;27;20313;-88
2022/07/18 07:40:47;;;;;;;2.58;2.10;;;34.70;53.40;;;;;;5136445;27;20209;-89
2022/07/18 07:43:17;;;;;;;2.63;1.90;;;34.10;55.10;;;;;;5138053;27;20221;-88
2022/07/18 07:45:53;;;;;;;4.22;2.22;;;35.40;54.50;;;;;;5139828;27;20221;-88
2022/07/18 07:48:21;;;;;;;4.90;2.42;;;35.60;53.40;;;;;;5138750;28;20217;-86
2022/07/18 07:50:50;;;;;;;2.15;1.95;;;35.50;54.50;;;;;;5123610;27;20240;-86
2022/07/18 07:53:22;;;;;;;2.22;2.00;;;35.70;54.00;;;;;;5134267;27;20201;-85
2022/07/18 07:55:50;;;;;;;2.15;1.85;;;35.40;52.80;;;;;;5115624;28;20202;-90
2022/07/18 07:58:19;;;;;;;3.45;2.10;;;34.60;52.40;;;;;;5126700;28;20689;-90
2022/07/18 08:00:48;;;;;;;4.78;2.20;;;35.70;52.80;;;;;;5116690;28;20236;-87
2022/07/18 08:03:19;;;;;;;2.53;2.03;;;35.80;52.40;;;;;;5115062;28;20566;-83
2022/07/18 08:05:50;;;;;;;4.97;1.92;;;35.70;49.90;;;;;;5133253;27;20231;-88
2022/07/18 08:08:19;;;;;;;3.90;2.08;;;35.80;51.50;;;;;;5133500;28;20209;-87
2022/07/18 08:10:52;;;;;;;3.88;2.00;;;35.90;53.90;;;;;;5114615;28;20275;-85
2022/07/18 08:13:21;;;;;;;2.10;1.90;;;35.70;54.00;;;;;;5117775;28;20225;-84
2022/07/18 08:15:49;;;;;;;3.22;2.25;;;35.50;51.50;;;;;;5119787;28;20635;-86
2022/07/18 08:18:19;;;;;;;6.20;2.00;;;35.30;51.50;;;;;;5135392;28;20665;-87
2022/07/18 08:20:48;;;;;;;3.40;2.00;;;35.20;52.50;;;;;;5135778;28;20194;-86
2022/07/18 08:23:17;;;;;;;2.95;2.00;;;35.30;54.50;;;;;;5134573;27;20201;-83
2022/07/18 08:25:47;;;;;;;2.55;2.00;;;35.50;50.90;;;;;;5119371;28;20294;-87
2022/07/18 08:28:18;;;;;;;3.70;1.80;;;35.80;49.00;;;;;;5118100;28;20213;-86
2022/07/18 08:30:46;;;;;;;2.03;1.77;;;35.70;52.10;;;;;;5123349;28;20298;-83
2022/07/18 08:33:14;;;;;;;4.95;2.03;;;35.90;53.10;;;;;;5118622;28;20286;-86
2022/07/18 08:35:47;;;;;;;5.53;2.17;;;35.40;50.10;;;;;;5122181;28;20705;-86
2022/07/18 08:38:18;;;;;;;3.53;1.90;;;36.00;49.60;;;;;;5120032;28;20591;-86
2022/07/18 08:40:48;;;;;;;2.50;1.90;;;35.70;49.60;;;;;;5130442;28;20616;-86
2022/07/18 08:43:17;;;;;;;3.00;1.92;;;35.40;51.50;;;;;;5122176;27;20222;-86
2022/07/18 08:45:50;;;;;;;2.70;1.80;;;35.80;49.60;;;;;;5122339;27;20210;-84
2022/07/18 08:48:19;;;;;;;3.25;1.90;;;35.80;50.70;;;;;;5127237;27;20293;-86
2022/07/18 08:50:49;;;;;;;5.05;2.10;;;35.60;50.80;;;;;;5132714;27;20213;-86
2022/07/18 08:53:19;;;;;;;3.15;1.98;;;36.20;51.60;;;;;;5117039;27;20214;-76
2022/07/18 08:55:49;;;;;;;4.32;2.10;;;35.80;50.60;;;;;;5114636;27;20256;-75
2022/07/18 08:58:17;;;;;;;4.43;1.98;;;35.50;51.50;;;;;;5118663;27;20230;-77
2022/07/18 09:01:06;;;;;;;1.98;1.80;;;36.10;51.10;;;;;;5123424;27;20231;-76
2022/07/18 09:03:37;;;;;;;6.15;1.85;;;35.60;48.80;;;;;;5118046;27;20216;-75
2022/07/18 09:06:11;;;;;;;1.73;1.60;;;34.60;47.00;;;;;;5114157;28;20218;-75
2022/07/18 09:08:40;;;;;;;2.15;1.95;;;35.00;49.50;;;;;;5117513;27;20229;-76
2022/07/18 09:11:11;;;;;;;3.05;1.70;;;36.00;46.30;;;;;;5130786;27;20202;-76
2022/07/18 09:14:00;;;;;;;2.65;1.50;;;36.00;46.30;;;;;;5114355;28;20206;-75
2022/07/18 09:16:29;;;;;;;2.30;1.80;;;36.10;44.70;;;;;;5123601;27;20366;-76
2022/07/18 09:18:57;;;;;;;3.08;1.80;;;36.00;46.90;;;;;;5114633;28;20210;-75
2022/07/18 09:21:27;;;;;;;3.72;1.70;;;36.10;47.10;;;;;;5114961;27;20305;-75
2022/07/18 09:24:05;;;;;;;2.83;1.60;;;36.10;47.70;;;;;;5114485;28;20198;-75
2022/07/18 09:26:40;;;;;;;2.65;1.67;;;36.10;46.20;;;;;;5115325;27;20652;-79
2022/07/18 09:29:09;;;;;;;3.38;1.70;;;36.60;45.00;;;;;;5116430;28;20268;-81
2022/07/18 09:31:56;;;;;;;1.63;1.50;;;36.60;43.10;;;;;;5115040;28;20200;-82
2022/07/18 09:34:36;;;;;;;1.60;1.40;;;36.70;44.40;;;;;;5127135;27;20213;-80
2022/07/18 09:37:11;;;;;;;2.25;1.60;;;36.00;44.10;;;;;;5118294;27;20202;-79
2022/07/18 09:39:39;;;;;;;4.38;1.50;;;36.20;45.60;;;;;;5116898;28;20666;-82
2022/07/18 09:42:17;;;;;;;2.22;1.42;;;36.10;42.70;;;;;;5120485;27;20210;-77
2022/07/18 09:44:58;;;;;;;3.65;1.40;;;36.70;42.80;;;;;;5130249;27;20206;-79
2022/07/18 09:47:26;;;;;;;1.52;1.30;;;36.80;42.00;;;;;;5119427;28;20218;-78
2022/07/18 09:49:56;;;;;;;1.45;1.30;;;36.50;42.30;;;;;;5124710;28;20233;-77
2022/07/18 09:52:25;;;;;;;1.70;1.50;;;36.80;42.00;;;;;;5121731;27;20297;-77
2022/07/18 09:55:06;;;;;;;2.42;1.45;;;37.00;41.90;;;;;;5129157;27;20202;-78
2022/07/18 09:57:35;;;;;;;2.88;1.40;;;37.20;38.80;;;;;;5131117;27;20213;-77
2022/07/18 10:00:04;;;;;;;2.60;1.40;;;37.50;39.80;;;;;;5128094;27;20202;-77
2022/07/18 10:02:33;;;;;;;2.63;1.50;;;37.60;38.10;;;;;;5139405;27;20209;-79
2022/07/18 10:05:02;;;;;;;2.97;1.50;;;37.90;39.00;;;;;;5135949;27;20731;-78
2022/07/18 10:07:38;;;;;;;2.10;1.52;;;37.10;39.60;;;;;;5133924;27;20300;-79
2022/07/18 10:10:07;;;;;;;3.78;1.58;;;37.20;42.90;;;;;;5140529;27;20792;-77
2022/07/18 10:12:36;;;;;;;3.38;1.55;;;37.50;39.70;;;;;;5134697;27;20241;-78
2022/07/18 10:15:06;;;;;;;4.00;1.70;;;37.30;40.50;;;;;;5123579;27;20228;-77
2022/07/18 10:17:34;;;;;;;3.35;1.60;;;37.00;40.30;;;;;;5135388;27;20225;-77
2022/07/18 10:20:11;;;;;;;3.40;1.70;;;37.10;43.70;;;;;;5141066;27;20197;-77
2022/07/18 10:22:43;;;;;;;2.20;1.52;;;37.10;41.40;;;;;;5142252;27;20190;-79
2022/07/18 10:25:13;;;;;;;3.78;1.63;;;36.90;39.60;;;;;;5142328;27;20244;-76
2022/07/18 10:27:53;;;;;;;5.18;1.70;;;37.00;41.10;;;;;;5137389;27;20214;-78
2022/07/18 10:30:33;;;;;;;2.88;1.70;;;37.60;41.00;;;;;;5134320;27;20221;-79
2022/07/18 10:33:04;;;;;;;1.80;1.70;;;37.80;41.60;;;;;;5133813;27;20189;-77
2022/07/18 10:36:08;;;;;;;2.38;1.50;;;38.90;37.40;;;;;;5131510;27;20254;-79
2022/07/18 10:39:05;;;;;;;5.88;1.80;;;37.90;39.00;;;;;;5118682;27;20348;-78
2022/07/18 10:41:33;;;;;;;3.38;1.73;;;38.00;41.20;;;;;;5117975;27;20243;-79
2022/07/18 10:44:22;;;;;;;2.10;1.80;;;37.90;39.50;;;;;;5134503;27;20229;-76
2022/07/18 10:47:08;;;;;;;3.40;1.70;;;37.90;39.90;;;;;;5139642;27;20253;-75
2022/07/18 10:50:12;;;;;;;2.03;1.60;;;37.80;38.40;;;;;;5134519;27;20201;-77
2022/07/18 10:52:59;;;;;;;3.30;1.70;;;37.00;41.30;;;;;;5101521;27;20284;-79
2022/07/18 10:55:30;;;;;;;2.17;1.88;;;37.50;38.80;;;;;;5134814;27;20197;-78
2022/07/18 10:58:20;;;;;;;2.50;1.60;;;38.00;40.30;;;;;;5135614;27;20194;-78
2022/07/18 11:00:51;;;;;;;3.50;1.77;;;36.30;42.70;;;;;;5130293;27;20206;-77
2022/07/18 11:03:32;;;;;;;3.97;1.70;;;36.80;42.60;;;;;;5130845;27;20209;-78
2022/07/18 11:06:03;;;;;;;3.10;1.55;;;37.50;40.50;;;;;;5134742;27;20189;-78
2022/07/18 11:08:33;;;;;;;2.35;1.70;;;36.80;41.90;;;;;;5133200;27;20208;-76
2022/07/18 11:11:16;;;;;;;1.98;1.67;;;37.80;40.70;;;;;;5134481;27;20628;-77
2022/07/18 11:13:49;;;;;;;3.63;1.83;;;37.70;38.50;;;;;;5131796;27;20552;-78
2022/07/18 11:16:25;;;;;;;2.13;1.60;;;37.50;38.70;;;;;;5122300;27;20222;-80
2022/07/18 11:19:18;;;;;;;1.50;1.40;;;36.80;38.90;;;;;;5132436;27;20234;-77
2022/07/18 11:21:47;;;;;;;3.47;1.65;;;36.10;39.60;;;;;;5133922;27;20251;-74
2022/07/18 11:24:16;;;;;;;1.73;1.40;;;35.20;41.30;;;;;;5135330;27;20210;-77
2022/07/18 11:26:47;;;;;;;3.22;1.70;;;35.90;39.70;;;;;;5126119;27;20332;-77
2022/07/18 11:29:20;;;;;;;1.73;1.52;;;35.50;39.60;;;;;;5134721;27;20210;-78
2022/07/18 11:31:49;;;;;;;3.53;1.50;;;35.60;40.60;;;;;;5136366;27;20240;-77
2022/07/18 11:34:21;;;;;;;1.98;1.50;;;36.20;39.30;;;;;;5116640;27;20255;-77
2022/07/18 11:37:04;;;;;;;3.67;1.80;;;35.70;41.10;;;;;;5145251;27;20275;-78
2022/07/18 11:39:34;;;;;;;2.20;1.60;;;34.60;42.40;;;;;;5155126;27;20208;-79
2022/07/18 11:42:05;;;;;;;3.20;1.50;;;34.10;43.40;;;;;;5154866;27;20239;-77
2022/07/18 11:44:33;;;;;;;3.63;1.50;;;33.70;40.50;;;;;;5146741;27;20229;-77
2022/07/18 11:47:03;;;;;;;2.72;1.63;;;33.70;41.40;;;;;;5132305;27;20222;-77
2022/07/18 11:49:32;;;;;;;2.38;1.55;;;33.50;42.70;;;;;;5131716;27;20229;-76
2022/07/18 11:52:01;;;;;;;2.42;1.55;;;33.20;42.50;;;;;;5121918;27;20209;-78
2022/07/18 11:54:30;;;;;;;1.85;1.30;;;33.20;45.00;;;;;;5125550;28;20229;-77
2022/07/18 11:56:59;;;;;;;5.05;1.58;;;33.50;42.40;;;;;;5114815;28;20205;-78
2022/07/18 11:59:39;;;;;;;4.88;1.70;;;33.60;42.60;;;;;;5128740;27;20198;-75
2022/07/18 12:02:10;;;;;;;3.22;1.60;;;33.20;43.40;;;;;;5118055;28;20229;-76
2022/07/18 12:04:42;;;;;;;3.00;1.58;;;32.90;44.20;;;;;;5126578;28;20218;-77
2022/07/18 12:07:19;;;;;;;2.35;1.50;;;32.80;43.80;;;;;;5117237;28;20221;-77
2022/07/18 12:09:49;;;;;;;3.25;1.45;;;32.70;42.40;;;;;;5115693;28;20678;-77
2022/07/18 12:12:20;;;;;;;4.60;1.50;;;32.40;43.70;;;;;;5121280;27;20210;-78
2022/07/18 12:15:00;;;;;;;3.03;1.40;;;32.10;44.80;;;;;;5112973;28;20728;-79
2022/07/18 12:17:29;;;;;;;4.35;1.40;;;32.30;42.10;;;;;;5114104;28;20198;-75
2022/07/18 12:20:11;;;;;;;3.25;1.58;;;31.90;42.10;;;;;;5125687;27;20280;-74
2022/07/18 12:23:07;;;;;;;3.47;1.70;;;32.30;46.20;;;;;;5129487;27;20266;-74
2022/07/18 12:25:39;;;;;;;7.63;1.52;;;32.40;45.00;;;;;;5117944;28;20215;-80
2022/07/18 12:28:15;;;;;;;1.50;1.40;;;32.50;43.70;;;;;;5125310;27;20218;-77
2022/07/18 12:30:46;;;;;;;2.13;1.50;;;32.30;44.30;;;;;;5117141;28;20244;-78
2022/07/18 12:33:15;;;;;;;3.67;1.53;;;31.60;42.90;;;;;;5116266;28;20248;-77
2022/07/18 12:35:44;;;;;;;3.30;1.37;;;31.70;46.00;;;;;;5119531;27;20205;-76
2022/07/18 12:38:13;;;;;;;2.80;1.53;;;31.70;47.20;;;;;;5134388;27;20288;-73
2022/07/18 12:40:46;;;;;;;3.77;1.50;;;31.90;45.60;;;;;;5118861;27;20264;-77
2022/07/18 12:43:16;;;;;;;2.60;1.60;;;31.70;42.20;;;;;;5132424;27;20258;-76
2022/07/18 12:45:46;;;;;;;3.30;1.50;;;31.70;45.50;;;;;;5130809;27;20205;-74
2022/07/18 12:48:14;;;;;;;2.60;1.50;;;31.70;45.30;;;;;;5135462;27;20272;-76
2022/07/18 12:50:44;;;;;;;2.40;1.40;;;31.60;45.10;;;;;;5134669;27;20626;-75
2022/07/18 12:53:13;;;;;;;3.57;1.47;;;31.20;43.90;;;;;;5136263;27;20226;-77
2022/07/18 12:55:42;;;;;;;2.50;1.50;;;31.50;46.00;;;;;;5132729;27;20616;-75
2022/07/18 12:58:10;;;;;;;2.50;1.37;;;31.30;46.20;;;;;;5130550;27;20208;-75
2022/07/18 13:00:38;;;;;;;4.00;1.30;;;30.90;44.40;;;;;;5118962;27;20213;-74
2022/07/18 13:03:08;;;;;;;2.83;1.47;;;30.90;44.70;;;;;;5134001;27;20292;-76
2022/07/18 13:05:36;;;;;;;2.67;1.60;;;30.30;43.90;;;;;;5121338;27;20245;-80
2022/07/18 13:08:09;;;;;;;2.73;1.50;;;30.30;44.30;;;;;;5135607;27;20274;-76
2022/07/18 13:10:39;;;;;;;2.47;1.50;;;30.40;46.20;;;;;;5125596;27;20281;-76
2022/07/18 13:13:11;;;;;;;1.93;1.50;;;30.80;46.30;;;;;;5126866;27;20217;-78